createdAt,value
2022-11-10T00:00:50.245Z,98804.38
2022-11-10T00:02:09.909Z,98805.03
2022-11-10T00:03:29.753Z,98801.09
2022-11-10T00:04:49.662Z,98808.00
2022-11-10T00:06:09.674Z,98804.53
2022-11-10T00:07:29.416Z,98813.59
2022-11-10T00:08:49.237Z,98810.94
2022-11-10T00:10:09.589Z,98815.47
2022-11-10T00:11:29.188Z,98817.34
2022-11-10T00:12:48.928Z,98827.19
2022-11-10T00:14:08.813Z,98823.06
2022-11-10T00:15:29.247Z,98820.09
2022-11-10T00:16:49.453Z,98834.94
2022-11-10T00:18:09.233Z,98833.38
2022-11-10T00:19:29.260Z,98837.59
2022-11-10T00:20:49.097Z,98835.25
2022-11-10T00:22:08.923Z,98833.97
2022-11-10T00:23:28.648Z,98838.81
2022-11-10T00:24:48.366Z,98841.47
2022-11-10T00:26:19.321Z,98840.97
2022-11-10T00:27:39.556Z,98840.16
2022-11-10T00:28:59.556Z,98840.47
2022-11-10T00:30:19.305Z,98842.66
2022-11-10T00:31:39.405Z,98833.91
2022-11-10T00:32:59.375Z,98838.44
2022-11-10T00:34:19.105Z,98832.63
2022-11-10T00:35:38.801Z,98833.41
2022-11-10T00:36:58.487Z,98835.28
2022-11-10T00:38:18.230Z,98843.56
2022-11-10T00:39:37.971Z,98834.03
2022-11-10T00:40:58.371Z,98844.63
2022-11-10T00:42:18.288Z,98844.13
2022-11-10T00:43:38.082Z,98842.56
2022-11-10T00:44:57.968Z,98847.69
2022-11-10T00:46:17.690Z,98847.97
2022-11-10T00:47:37.405Z,98852.00
2022-11-10T00:48:57.112Z,98855.44
2022-11-10T00:50:16.995Z,98858.09
2022-11-10T00:51:36.911Z,98849.97
2022-11-10T00:52:56.744Z,98853.69
2022-11-10T00:54:16.588Z,98860.38
2022-11-10T00:55:42.960Z,98855.66
2022-11-10T00:57:02.913Z,98859.69
2022-11-10T00:58:22.638Z,98858.72
2022-11-10T00:59:42.316Z,98866.19
2022-11-10T01:01:02.854Z,98864.69
2022-11-10T01:02:22.987Z,98867.94
2022-11-10T01:03:42.829Z,98866.38
2022-11-10T01:05:02.632Z,98869.81
2022-11-10T01:06:22.535Z,98879.91
2022-11-10T01:07:42.286Z,98873.06
2022-11-10T01:09:02.243Z,98879.44
2022-11-10T01:10:21.875Z,98879.72
2022-11-10T01:11:41.616Z,98886.88
2022-11-10T01:13:01.366Z,98885.31
2022-11-10T01:14:21.130Z,98885.31
2022-11-10T01:15:44.525Z,98892.19
2022-11-10T01:17:04.316Z,98894.06
2022-11-10T01:18:24.078Z,98898.28
2022-11-10T01:19:43.897Z,98899.38
2022-11-10T01:21:03.943Z,98897.00
2022-11-10T01:22:24.076Z,98905.47
2022-11-10T01:23:44.010Z,98908.09
2022-11-10T01:25:03.997Z,98902.53
2022-11-10T01:26:24.229Z,98905.19
2022-11-10T01:27:44.229Z,98905.19
2022-11-10T01:29:04.005Z,98906.25
2022-11-10T01:30:23.807Z,98909.19
2022-11-10T01:31:43.637Z,98904.97
2022-11-10T01:33:03.484Z,98909.50
2022-11-10T01:34:23.552Z,98908.97
2022-11-10T01:35:43.492Z,98913.81
2022-11-10T01:37:03.315Z,98921.56
2022-11-10T01:38:23.356Z,98916.84
2022-11-10T01:39:43.314Z,98918.22
2022-11-10T01:41:04.361Z,98911.91
2022-11-10T01:42:28.620Z,98916.44
2022-11-10T01:43:48.422Z,98916.72
2022-11-10T01:45:31.867Z,98916.72
2022-11-10T01:46:51.877Z,98916.72
2022-11-10T01:48:14.888Z,98923.91
2022-11-10T01:49:35.108Z,98925.56
2022-11-10T01:50:55.811Z,98915.25
2022-11-10T01:52:15.611Z,98919.16
2022-11-10T01:53:38.117Z,98929.28
2022-11-10T01:54:58.261Z,98924.56
2022-11-10T01:56:18.636Z,98922.97
2022-11-10T01:57:40.252Z,98924.34
2022-11-10T01:59:03.340Z,98923.84
2022-11-10T02:00:23.671Z,98926.81
2022-11-10T02:01:45.512Z,98928.16
2022-11-10T02:03:12.213Z,98934.03
2022-11-10T02:04:33.212Z,98935.91
2022-11-10T02:05:53.076Z,98937.75
2022-11-10T02:07:13.119Z,98936.50
2022-11-10T02:08:33.306Z,98932.47
2022-11-10T02:09:53.513Z,98932.28
2022-11-10T02:11:13.490Z,98933.13
2022-11-10T02:12:33.424Z,98932.91
2022-11-10T02:13:53.552Z,98936.44
2022-11-10T02:15:14.792Z,98933.28
2022-11-10T02:16:35.723Z,98932.28
2022-11-10T02:17:55.862Z,98938.94
2022-11-10T02:19:20.000Z,98940.59
2022-11-10T02:20:43.551Z,98954.97
2022-11-10T02:22:03.439Z,98953.94
2022-11-10T02:23:29.403Z,98954.03
2022-11-10T02:24:49.094Z,98961.47
2022-11-10T02:26:08.878Z,98957.03
2022-11-10T02:27:28.614Z,98953.88
2022-11-10T02:28:48.579Z,98958.66
2022-11-10T02:30:08.700Z,98966.38
2022-11-10T02:31:28.869Z,98968.25
2022-11-10T02:32:48.725Z,98962.47
2022-11-10T02:34:08.707Z,98959.59
2022-11-10T02:35:28.433Z,98970.47
2022-11-10T02:36:48.086Z,98972.34
2022-11-10T02:38:08.038Z,98969.97
2022-11-10T02:39:27.839Z,98980.84
2022-11-10T02:40:51.053Z,98973.75
2022-11-10T02:42:10.785Z,98990.19
2022-11-10T02:43:30.662Z,98984.41
2022-11-10T02:44:50.570Z,98981.53
2022-11-10T02:46:10.305Z,98984.47
2022-11-10T02:47:30.066Z,98979.72
2022-11-10T02:48:49.921Z,98992.16
2022-11-10T02:50:09.871Z,98989.53
2022-11-10T02:51:29.770Z,98983.72
2022-11-10T02:52:49.484Z,98990.88
2022-11-10T02:54:09.190Z,98989.28
2022-11-10T02:55:29.196Z,98991.94
2022-11-10T02:56:49.236Z,98999.88
2022-11-10T02:58:09.017Z,98998.84
2022-11-10T02:59:28.800Z,98998.31
2022-11-10T03:00:48.653Z,98996.72
2022-11-10T03:02:08.399Z,98998.88
2022-11-10T03:03:28.281Z,99004.38
2022-11-10T03:04:48.110Z,99008.91
2022-11-10T03:06:07.867Z,99005.69
2022-11-10T03:07:27.709Z,99009.13
2022-11-10T03:08:47.396Z,99008.34
2022-11-10T03:10:07.345Z,99020.50
2022-11-10T03:11:32.088Z,99023.44
2022-11-10T03:12:56.433Z,99025.84
2022-11-10T03:14:16.196Z,99021.91
2022-11-10T03:15:35.809Z,99024.03
2022-11-10T03:16:55.621Z,99024.81
2022-11-10T03:18:15.433Z,99022.19
2022-11-10T03:19:35.355Z,99030.69
2022-11-10T03:20:55.268Z,99018.81
2022-11-10T03:22:15.141Z,99024.38
2022-11-10T03:23:35.647Z,99030.47
2022-11-10T03:24:55.349Z,99027.53
2022-11-10T03:26:15.171Z,99033.91
2022-11-10T03:27:34.901Z,99032.31
2022-11-10T03:28:54.692Z,99033.41
2022-11-10T03:30:14.511Z,99031.53
2022-11-10T03:31:34.290Z,99031.25
2022-11-10T03:32:54.305Z,99029.03
2022-11-10T03:34:14.058Z,99027.22
2022-11-10T03:35:33.869Z,99033.72
2022-11-10T03:36:53.580Z,99030.78
2022-11-10T03:38:13.296Z,99028.44
2022-11-10T03:39:33.094Z,99038.00
2022-11-10T03:42:33.081Z,99040.72
2022-11-10T03:43:52.940Z,99043.09
2022-11-10T03:45:13.455Z,99046.25
2022-11-10T03:46:33.773Z,99046.25
2022-11-10T03:47:53.933Z,99049.97
2022-11-10T03:49:13.680Z,99044.94
2022-11-10T03:50:33.476Z,99054.47
2022-11-10T03:51:53.345Z,99051.59
2022-11-10T03:53:13.214Z,99052.91
2022-11-10T03:54:32.933Z,99051.06
2022-11-10T03:55:52.769Z,99057.16
2022-11-10T03:57:12.641Z,99057.66
2022-11-10T03:58:32.264Z,99061.09
2022-11-10T03:59:51.938Z,99060.25
2022-11-10T04:01:11.591Z,99062.63
2022-11-10T04:02:31.439Z,99061.81
2022-11-10T04:03:51.849Z,99053.38
2022-11-10T04:05:11.673Z,99066.63
2022-11-10T04:06:31.365Z,99060.81
2022-11-10T04:07:58.400Z,99062.94
2022-11-10T04:09:18.477Z,99071.69
2022-11-10T04:10:38.234Z,99078.28
2022-11-10T04:11:58.164Z,99080.94
2022-11-10T04:13:17.980Z,99084.63
2022-11-10T04:14:37.712Z,99086.50
2022-11-10T04:15:57.407Z,99091.00
2022-11-10T04:17:17.154Z,99087.56
2022-11-10T04:18:36.912Z,99100.28
2022-11-10T04:19:56.713Z,99101.63
2022-11-10T04:21:16.579Z,99094.25
2022-11-10T04:22:36.455Z,99102.19
2022-11-10T04:23:56.451Z,99090.81
2022-11-10T04:25:16.192Z,99099.81
2022-11-10T04:26:36.528Z,99103.81
2022-11-10T04:27:56.336Z,99097.22
2022-11-10T04:29:17.264Z,99096.97
2022-11-10T04:30:36.978Z,99093.03
2022-11-10T04:31:56.697Z,99100.47
2022-11-10T04:33:16.633Z,99083.78
2022-11-10T04:34:36.527Z,99093.88
2022-11-10T04:35:56.424Z,99096.81
2022-11-10T04:37:16.238Z,99096.50
2022-11-10T04:38:36.077Z,99098.91
2022-11-10T04:39:55.909Z,99103.13
2022-11-10T04:41:16.141Z,99111.66
2022-11-10T04:42:35.831Z,99115.13
2022-11-10T04:43:55.877Z,99114.59
2022-11-10T04:45:16.049Z,99110.91
2022-11-10T04:46:37.530Z,99117.72
2022-11-10T04:47:57.288Z,99124.88
2022-11-10T04:49:17.084Z,99134.09
2022-11-10T04:50:36.809Z,99136.25
2022-11-10T04:51:56.799Z,99126.72
2022-11-10T04:53:17.548Z,99126.72
2022-11-10T04:54:37.248Z,99121.69
2022-11-10T04:55:57.160Z,99120.91
2022-11-10T04:57:16.985Z,99117.75
2022-11-10T04:58:36.827Z,99129.41
2022-11-10T04:59:56.484Z,99131.53
2022-11-10T05:01:18.634Z,99136.31
2022-11-10T05:02:39.869Z,99135.00
2022-11-10T05:03:59.946Z,99138.44
2022-11-10T05:05:19.742Z,99142.94
2022-11-10T05:06:39.511Z,99141.66
2022-11-10T05:07:59.819Z,99155.66
2022-11-10T05:09:19.684Z,99152.22
2022-11-10T05:10:39.356Z,99158.28
2022-11-10T05:11:59.102Z,99162.00
2022-11-10T05:13:18.939Z,99158.28
2022-11-10T05:14:39.113Z,99158.28
2022-11-10T05:15:58.939Z,99155.94
2022-11-10T05:17:18.948Z,99163.63
2022-11-10T05:18:38.809Z,99161.78
2022-11-10T05:19:58.529Z,99172.09
2022-11-10T05:21:18.335Z,99178.44
2022-11-10T05:22:38.012Z,99175.00
2022-11-10T05:23:57.730Z,99176.88
2022-11-10T05:25:17.487Z,99178.72
2022-11-10T05:26:37.455Z,99172.91
2022-11-10T05:27:57.882Z,99176.13
2022-11-10T05:29:18.295Z,99177.44
2022-11-10T05:30:39.026Z,99172.44
2022-11-10T05:32:01.169Z,99171.91
2022-11-10T05:33:21.330Z,99171.38
2022-11-10T05:34:41.115Z,99176.69
2022-11-10T05:36:01.521Z,99184.91
2022-11-10T05:37:21.930Z,99184.34
2022-11-10T05:38:43.666Z,99174.56
2022-11-10T05:40:04.462Z,99169.81
2022-11-10T05:41:24.545Z,99173.75
2022-11-10T05:42:45.491Z,99175.63
2022-11-10T05:44:05.525Z,99167.44
2022-11-10T05:45:26.705Z,99171.09
2022-11-10T05:46:47.104Z,99177.47
2022-11-10T05:48:07.364Z,99174.81
2022-11-10T05:49:27.328Z,99179.81
2022-11-10T05:50:47.060Z,99171.66
2022-11-10T05:52:06.786Z,99178.25
2022-11-10T05:53:26.704Z,99175.34
2022-11-10T05:54:46.697Z,99176.69
2022-11-10T05:56:06.873Z,99180.13
2022-11-10T05:57:26.903Z,99185.69
2022-11-10T05:58:46.656Z,99191.75
2022-11-10T06:00:06.752Z,99190.44
2022-11-10T06:01:26.755Z,99191.78
2022-11-10T06:02:46.589Z,99193.63
2022-11-10T06:04:06.305Z,99193.09
2022-11-10T06:05:30.955Z,99202.09
2022-11-10T06:06:51.457Z,99205.53
2022-11-10T06:08:11.419Z,99212.66
2022-11-10T06:09:31.142Z,99223.25
2022-11-10T06:10:50.961Z,99218.53
2022-11-10T06:12:10.865Z,99230.13
2022-11-10T06:13:30.606Z,99233.34
2022-11-10T06:14:53.060Z,99229.91
2022-11-10T06:16:12.935Z,99225.66
2022-11-10T06:17:32.779Z,99232.78
2022-11-10T06:18:52.535Z,99235.44
2022-11-10T06:20:13.848Z,99234.94
2022-11-10T06:21:33.509Z,99228.31
2022-11-10T06:23:06.858Z,99231.75
2022-11-10T06:24:26.971Z,99242.59
2022-11-10T06:25:46.893Z,99249.72
2022-11-10T06:27:06.865Z,99250.81
2022-11-10T06:28:26.734Z,99252.91
2022-11-10T06:29:46.691Z,99260.59
2022-11-10T06:31:06.496Z,99265.09
2022-11-10T06:32:26.387Z,99275.66
2022-11-10T06:33:46.105Z,99273.00
2022-11-10T06:35:06.135Z,99274.84
2022-11-10T06:36:25.935Z,99279.09
2022-11-10T06:37:45.794Z,99278.53
2022-11-10T06:39:05.676Z,99276.69
2022-11-10T06:40:25.858Z,99289.91
2022-11-10T06:41:45.945Z,99295.97
2022-11-10T06:43:05.747Z,99301.81
2022-11-10T06:44:25.626Z,99301.81
2022-11-10T06:45:45.305Z,99304.16
2022-11-10T06:47:05.123Z,99302.59
2022-11-10T06:48:24.865Z,99304.72
2022-11-10T06:49:45.976Z,99316.06
2022-11-10T06:51:05.983Z,99314.72
2022-11-10T06:52:25.787Z,99320.28
2022-11-10T06:53:45.874Z,99316.03
2022-11-10T06:55:06.083Z,99323.69
2022-11-10T06:56:26.156Z,99329.25
2022-11-10T06:57:47.056Z,99331.59
2022-11-10T06:59:07.391Z,99335.59
2022-11-10T07:00:28.285Z,99332.38
2022-11-10T07:01:48.441Z,99329.22
2022-11-10T07:03:11.945Z,99333.97
2022-11-10T07:04:31.799Z,99339.50
2022-11-10T07:05:51.626Z,99344.25
2022-11-10T07:07:12.076Z,99349.81
2022-11-10T07:08:32.337Z,99352.69
2022-11-10T07:09:52.142Z,99352.44
2022-11-10T07:11:11.954Z,99356.38
2022-11-10T07:12:31.824Z,99358.78
2022-11-10T07:13:52.622Z,99369.88
2022-11-10T07:15:12.759Z,99365.63
2022-11-10T07:16:32.705Z,99376.47
2022-11-10T07:17:52.526Z,99370.91
2022-11-10T07:19:12.515Z,99369.53
2022-11-10T07:20:32.388Z,99376.41
2022-11-10T07:21:52.224Z,99377.72
2022-11-10T07:23:12.083Z,99382.19
2022-11-10T07:24:31.755Z,99382.47
2022-11-10T07:25:51.483Z,99383.25
2022-11-10T07:27:11.207Z,99380.88
2022-11-10T07:28:31.087Z,99385.09
2022-11-10T07:29:50.948Z,99393.03
2022-11-10T07:31:10.859Z,99388.53
2022-11-10T07:32:30.759Z,99392.75
2022-11-10T07:33:54.338Z,99385.38
2022-11-10T07:35:14.221Z,99387.75
2022-11-10T07:36:33.975Z,99394.91
2022-11-10T07:37:54.535Z,99390.41
2022-11-10T07:39:14.811Z,99402.06
2022-11-10T07:40:34.618Z,99393.31
2022-11-10T07:41:54.403Z,99398.63
2022-11-10T07:43:14.192Z,99405.50
2022-11-10T07:44:33.967Z,99406.00
2022-11-10T07:45:53.679Z,99406.56
2022-11-10T07:47:13.487Z,99408.94
2022-11-10T07:48:33.250Z,99413.66
2022-11-10T07:49:53.041Z,99415.50
2022-11-10T07:51:12.990Z,99408.38
2022-11-10T07:52:32.843Z,99418.44
2022-11-10T07:53:52.701Z,99417.38
2022-11-10T07:55:12.455Z,99422.66
2022-11-10T07:56:32.304Z,99426.09
2022-11-10T07:57:56.316Z,99434.81
2022-11-10T07:59:16.370Z,99430.34
2022-11-10T08:00:36.657Z,99434.56
2022-11-10T08:01:56.360Z,99437.22
2022-11-10T08:03:17.716Z,99438.81
2022-11-10T08:04:37.521Z,99439.31
2022-11-10T08:05:57.130Z,99439.31
2022-11-10T08:07:16.773Z,99442.50
2022-11-10T08:08:36.956Z,99441.44
2022-11-10T08:09:56.816Z,99445.66
2022-11-10T08:11:16.736Z,99443.78
2022-11-10T08:12:39.350Z,99446.44
2022-11-10T08:13:59.221Z,99451.47
2022-11-10T08:15:18.934Z,99451.47
2022-11-10T08:16:38.655Z,99447.50
2022-11-10T08:17:59.283Z,99451.47
2022-11-10T08:19:19.346Z,99448.81
2022-11-10T08:20:39.576Z,99446.41
2022-11-10T08:21:59.649Z,99461.50
2022-11-10T08:23:19.673Z,99450.09
2022-11-10T08:24:39.621Z,99449.84
2022-11-10T08:26:00.289Z,99454.56
2022-11-10T08:27:20.168Z,99450.84
2022-11-10T08:28:39.841Z,99459.06
2022-11-10T08:29:59.737Z,99463.81
2022-11-10T08:31:19.573Z,99455.31
2022-11-10T08:32:39.385Z,99456.66
2022-11-10T08:33:59.110Z,99457.16
2022-11-10T08:35:18.852Z,99466.94
2022-11-10T08:36:38.575Z,99459.53
2022-11-10T08:37:58.363Z,99462.94
2022-11-10T08:39:37.677Z,99468.19
2022-11-10T08:40:58.177Z,99465.00
2022-11-10T08:42:17.947Z,99473.97
2022-11-10T08:43:37.917Z,99469.22
2022-11-10T08:44:57.550Z,99470.53
2022-11-10T08:46:17.321Z,99473.72
2022-11-10T08:47:37.129Z,99480.06
2022-11-10T08:48:56.741Z,99472.06
2022-11-10T08:50:16.444Z,99480.25
2022-11-10T08:51:39.053Z,99485.00
2022-11-10T08:53:02.679Z,99487.13
2022-11-10T08:54:22.442Z,99480.75
2022-11-10T08:55:42.575Z,99479.13
2022-11-10T08:57:02.279Z,99483.03
2022-11-10T08:58:23.205Z,99477.69
2022-11-10T08:59:43.374Z,99477.94
2022-11-10T09:01:07.672Z,99491.97
2022-11-10T09:02:27.458Z,99492.19
2022-11-10T09:03:47.151Z,99499.09
2022-11-10T09:05:07.264Z,99494.56
2022-11-10T09:06:27.274Z,99501.44
2022-11-10T09:07:47.821Z,99503.06
2022-11-10T09:09:07.656Z,99504.63
2022-11-10T09:10:27.478Z,99501.94
2022-11-10T09:11:47.257Z,99501.94
2022-11-10T09:13:07.459Z,99503.50
2022-11-10T09:14:27.145Z,99503.22
2022-11-10T09:15:46.856Z,99507.50
2022-11-10T09:17:06.719Z,99503.47
2022-11-10T09:18:26.732Z,99510.34
2022-11-10T09:19:46.609Z,99509.78
2022-11-10T09:21:06.478Z,99506.78
2022-11-10T09:22:26.487Z,99508.41
2022-11-10T09:23:46.178Z,99510.47
2022-11-10T09:25:06.169Z,99509.91
2022-11-10T09:26:26.045Z,99514.16
2022-11-10T09:27:45.827Z,99515.19
2022-11-10T09:29:05.626Z,99518.63
2022-11-10T09:30:25.548Z,99514.59
2022-11-10T09:31:45.494Z,99524.97
2022-11-10T09:33:05.269Z,99528.13
2022-11-10T09:34:25.061Z,99523.28
2022-11-10T09:35:44.978Z,99525.59
2022-11-10T09:37:04.763Z,99532.22
2022-11-10T09:38:24.633Z,99535.09
2022-11-10T09:39:44.649Z,99529.78
2022-11-10T09:41:07.140Z,99534.84
2022-11-10T09:42:32.781Z,99544.09
2022-11-10T09:44:11.634Z,99546.44
2022-11-10T09:45:41.408Z,99546.97
2022-11-10T09:47:03.931Z,99548.50
2022-11-10T09:48:24.398Z,99550.31
2022-11-10T09:49:46.555Z,99547.66
2022-11-10T09:51:24.966Z,99552.13
2022-11-10T09:52:45.559Z,99556.66
2022-11-10T09:54:24.334Z,99566.44
2022-11-10T09:55:46.390Z,99558.19
2022-11-10T09:57:07.162Z,99564.81
2022-11-10T09:58:30.109Z,99556.50
2022-11-10T09:59:50.561Z,99558.59
2022-11-10T10:01:29.125Z,99557.22
2022-11-10T10:02:53.491Z,99557.75
2022-11-10T10:04:21.142Z,99556.94
2022-11-10T10:05:44.157Z,99553.72
2022-11-10T10:07:11.580Z,99554.69
2022-11-10T10:08:31.857Z,99558.63
2022-11-10T10:10:00.486Z,99556.78
2022-11-10T10:11:34.434Z,99551.97
2022-11-10T10:13:19.223Z,99554.88
2022-11-10T10:14:57.873Z,99553.78
2022-11-10T10:16:24.149Z,99558.03
2022-11-10T10:17:43.900Z,99556.69
2022-11-10T10:19:16.022Z,99560.13
2022-11-10T10:20:54.377Z,99561.94
2022-11-10T10:22:26.062Z,99553.38
2022-11-10T10:24:08.651Z,99555.97
2022-11-10T10:25:29.054Z,99556.72
2022-11-10T10:26:56.645Z,99545.50
2022-11-10T10:28:22.902Z,99559.31
2022-11-10T10:29:44.165Z,99559.31
2022-11-10T10:31:14.738Z,99560.09
2022-11-10T10:32:34.509Z,99551.75
2022-11-10T10:33:54.916Z,99572.72
2022-11-10T10:35:16.235Z,99566.91
2022-11-10T10:36:36.108Z,99571.69
2022-11-10T10:37:57.487Z,99566.56
2022-11-10T10:39:22.080Z,99566.78
2022-11-10T10:40:42.476Z,99571.53
2022-11-10T10:42:04.582Z,99568.34
2022-11-10T10:43:24.377Z,99568.56
2022-11-10T10:45:04.071Z,99558.16
2022-11-10T10:46:24.536Z,99570.78
2022-11-10T10:47:45.084Z,99570.22
2022-11-10T10:49:29.693Z,99568.66
2022-11-10T10:50:50.886Z,99555.84
2022-11-10T10:52:15.510Z,99561.38
2022-11-10T10:53:45.519Z,99558.72
2022-11-10T10:55:07.073Z,99557.06
2022-11-10T10:56:28.508Z,99550.66
2022-11-10T10:57:55.100Z,99547.50
2022-11-10T10:59:22.421Z,99548.72
2022-11-10T11:00:44.145Z,99556.41
2022-11-10T11:02:03.989Z,99552.94
2022-11-10T11:03:38.273Z,99552.69
2022-11-10T11:05:10.725Z,99558.50
2022-11-10T11:06:31.972Z,99556.03
2022-11-10T11:07:55.960Z,99555.81
2022-11-10T11:09:17.740Z,99556.63
2022-11-10T11:10:44.188Z,99564.31
2022-11-10T11:12:05.855Z,99563.44
2022-11-10T11:13:27.137Z,99565.22
2022-11-10T11:14:46.918Z,99561.19
2022-11-10T11:16:08.645Z,99554.78
2022-11-10T11:17:28.932Z,99556.50
2022-11-10T11:18:48.754Z,99549.81
2022-11-10T11:20:13.245Z,99555.06
2022-11-10T11:21:42.730Z,99555.53
2022-11-10T11:23:11.940Z,99555.84
2022-11-10T11:24:37.924Z,99552.56
2022-11-10T11:26:02.219Z,99561.06
2022-11-10T11:27:40.811Z,99558.31
2022-11-10T11:29:03.895Z,99563.97
2022-11-10T11:30:24.486Z,99561.88
2022-11-10T11:31:44.300Z,99561.88
2022-11-10T11:33:13.326Z,99560.00
2022-11-10T11:34:43.151Z,99564.44
2022-11-10T11:36:14.632Z,99566.81
2022-11-10T11:37:40.520Z,99562.25
2022-11-10T11:39:19.287Z,99564.66
2022-11-10T11:40:48.435Z,99556.38
2022-11-10T11:42:14.862Z,99560.03
2022-11-10T11:43:34.630Z,99556.75
2022-11-10T11:45:13.268Z,99567.13
2022-11-10T11:46:36.289Z,99558.84
2022-11-10T11:48:15.001Z,99557.19
2022-11-10T11:49:41.626Z,99566.75
2022-11-10T11:51:15.376Z,99564.06
2022-11-10T11:52:35.308Z,99561.72
2022-11-10T11:54:01.225Z,99562.81
2022-11-10T11:55:39.629Z,99568.41
2022-11-10T11:57:06.579Z,99555.88
2022-11-10T11:58:38.792Z,99554.31
2022-11-10T11:59:58.582Z,99549.75
2022-11-10T12:01:38.667Z,99554.31
2022-11-10T12:03:06.838Z,99555.69
2022-11-10T12:04:26.817Z,99552.25
2022-11-10T12:06:02.851Z,99551.72
2022-11-10T12:07:37.831Z,99549.94
2022-11-10T12:09:01.958Z,99552.41
2022-11-10T12:10:37.258Z,99550.56
2022-11-10T12:12:18.868Z,99559.59
2022-11-10T12:14:00.824Z,99553.50
2022-11-10T12:15:26.841Z,99553.22
2022-11-10T12:16:58.237Z,99564.34
2022-11-10T12:18:21.384Z,99563.00
2022-11-10T12:19:51.638Z,99562.59
2022-11-10T12:21:22.700Z,99557.28
2022-11-10T12:22:55.168Z,99553.81
2022-11-10T12:24:14.921Z,99558.38
2022-11-10T12:25:39.927Z,99551.38
2022-11-10T12:27:08.931Z,99547.00
2022-11-10T12:28:38.625Z,99548.41
2022-11-10T12:30:08.823Z,99547.63
2022-11-10T12:31:29.879Z,99551.44
2022-11-10T12:32:55.680Z,99539.75
2022-11-10T12:34:21.765Z,99551.19
2022-11-10T12:35:43.765Z,99553.34
2022-11-10T12:37:05.666Z,99552.06
2022-11-10T12:38:59.649Z,99545.94
2022-11-10T12:40:21.584Z,99553.34
2022-11-10T12:42:11.020Z,99556.00
2022-11-10T12:43:52.342Z,99546.72
2022-11-10T12:45:30.734Z,99545.13
2022-11-10T12:46:53.775Z,99539.22
2022-11-10T12:48:14.883Z,99547.22
2022-11-10T12:49:38.847Z,99541.09
2022-11-10T12:51:02.772Z,99544.34
2022-11-10T12:52:34.583Z,99535.06
2022-11-10T12:53:54.837Z,99549.19
2022-11-10T12:55:14.917Z,99545.44
2022-11-10T12:56:39.310Z,99541.41
2022-11-10T12:58:00.014Z,99553.34
2022-11-10T12:59:19.838Z,99548.00
2022-11-10T13:00:42.677Z,99546.91
2022-11-10T13:02:04.794Z,99543.19
2022-11-10T13:03:29.183Z,99546.66
2022-11-10T13:05:08.108Z,99546.84
2022-11-10T13:06:32.690Z,99552.69
2022-11-10T13:08:05.966Z,99557.22
2022-11-10T13:09:27.720Z,99556.44
2022-11-10T13:10:50.754Z,99555.66
2022-11-10T13:12:10.542Z,99557.50
2022-11-10T13:13:39.309Z,99563.66
2022-11-10T13:14:59.265Z,99563.34
2022-11-10T13:16:37.407Z,99563.34
2022-11-10T13:17:57.207Z,99568.06
2022-11-10T13:19:23.262Z,99566.22
2022-11-10T13:20:47.337Z,99572.34
2022-11-10T13:22:28.656Z,99566.69
2022-11-10T13:23:48.757Z,99573.31
2022-11-10T13:25:27.381Z,99573.03
2022-11-10T13:26:48.363Z,99572.63
2022-11-10T13:28:09.326Z,99572.13
2022-11-10T13:29:29.116Z,99571.34
2022-11-10T13:30:48.946Z,99558.31
2022-11-10T13:32:15.063Z,99558.59
2022-11-10T13:33:36.850Z,99563.94
2022-11-10T13:35:16.731Z,99561.56
2022-11-10T13:36:38.284Z,99562.06
2022-11-10T13:37:58.148Z,99565.81
2022-11-10T13:39:21.114Z,99564.25
2022-11-10T13:40:41.053Z,99566.91
2022-11-10T13:42:07.081Z,99572.81
2022-11-10T13:43:27.043Z,99568.56
2022-11-10T13:44:47.101Z,99571.16
2022-11-10T13:46:07.125Z,99568.47
2022-11-10T13:47:39.799Z,99580.72
2022-11-10T13:49:15.728Z,99578.03
2022-11-10T13:50:55.046Z,99579.13
2022-11-10T13:52:15.009Z,99578.94
2022-11-10T13:53:40.665Z,99577.56
2022-11-10T13:55:15.777Z,99576.00
2022-11-10T13:56:55.054Z,99574.13
2022-11-10T13:58:22.977Z,99583.59
2022-11-10T13:59:48.567Z,99583.38
2022-11-10T14:01:17.436Z,99584.47
2022-11-10T14:02:45.594Z,99575.06
2022-11-10T14:04:05.714Z,99575.69
2022-11-10T14:05:29.024Z,99577.06
2022-11-10T14:06:51.199Z,99581.59
2022-11-10T14:08:12.859Z,99588.81
2022-11-10T14:09:40.526Z,99576.06
2022-11-10T14:11:03.031Z,99588.91
2022-11-10T14:12:25.929Z,99584.66
2022-11-10T14:13:55.294Z,99593.75
2022-11-10T14:15:18.433Z,99590.56
2022-11-10T14:16:41.134Z,99585.53
2022-11-10T14:18:00.990Z,99596.47
2022-11-10T14:19:29.825Z,99600.50
2022-11-10T14:20:54.239Z,99600.19
2022-11-10T14:22:13.889Z,99602.38
2022-11-10T14:23:36.840Z,99598.41
2022-11-10T14:25:14.386Z,99593.38
2022-11-10T14:26:51.887Z,99599.31
2022-11-10T14:28:27.007Z,99593.16
2022-11-10T14:29:47.057Z,99597.22
2022-11-10T14:31:16.143Z,99597.22
2022-11-10T14:32:36.367Z,99599.31
2022-11-10T14:33:57.345Z,99595.03
2022-11-10T14:35:24.954Z,99591.09
2022-11-10T14:36:51.824Z,99595.75
2022-11-10T14:38:22.487Z,99593.94
2022-11-10T14:39:42.867Z,99594.81
2022-11-10T14:41:04.460Z,99603.38
2022-11-10T14:42:26.191Z,99606.13
2022-11-10T14:43:58.892Z,99610.66
2022-11-10T14:45:20.243Z,99610.75
2022-11-10T14:46:40.277Z,99614.78
2022-11-10T14:48:00.203Z,99614.84
2022-11-10T14:49:26.439Z,99620.47
2022-11-10T14:50:46.529Z,99625.88
2022-11-10T14:52:06.360Z,99625.38
2022-11-10T14:53:33.626Z,99627.31
2022-11-10T14:54:53.757Z,99622.34
2022-11-10T14:56:15.790Z,99624.00
2022-11-10T14:57:35.877Z,99629.41
2022-11-10T14:58:56.791Z,99625.47
2022-11-10T15:00:18.143Z,99625.25
2022-11-10T15:01:40.046Z,99629.53
2022-11-10T15:03:00.633Z,99626.47
2022-11-10T15:04:24.549Z,99631.84
2022-11-10T15:05:44.465Z,99630.31
2022-11-10T15:07:05.835Z,99637.56
2022-11-10T15:08:26.752Z,99634.97
2022-11-10T15:10:25.548Z,99637.41
2022-11-10T15:11:49.988Z,99639.13
2022-11-10T15:13:12.991Z,99643.44
2022-11-10T15:14:37.160Z,99633.91
2022-11-10T15:16:15.763Z,99638.50
2022-11-10T15:17:47.933Z,99638.06
2022-11-10T15:19:20.020Z,99634.34
2022-11-10T15:20:40.884Z,99635.19
2022-11-10T15:22:12.643Z,99645.56
2022-11-10T15:23:34.080Z,99641.38
2022-11-10T15:24:54.040Z,99651.22
2022-11-10T15:26:25.140Z,99654.44
2022-11-10T15:27:56.417Z,99652.34
2022-11-10T15:29:21.000Z,99655.56
2022-11-10T15:30:54.172Z,99656.94
2022-11-10T15:32:18.713Z,99660.88
2022-11-10T15:33:45.253Z,99651.63
2022-11-10T15:35:31.399Z,99655.84
2022-11-10T15:37:08.583Z,99661.44
2022-11-10T15:38:29.778Z,99659.63
2022-11-10T15:39:50.063Z,99667.38
2022-11-10T15:41:12.251Z,99659.16
2022-11-10T15:42:32.346Z,99658.66
2022-11-10T15:43:52.141Z,99665.59
2022-11-10T15:45:12.067Z,99666.13
2022-11-10T15:46:31.844Z,99657.41
2022-11-10T15:47:51.850Z,99668.09
2022-11-10T15:49:25.783Z,99667.84
2022-11-10T15:50:46.506Z,99668.66
2022-11-10T15:52:11.644Z,99676.41
2022-11-10T15:53:37.587Z,99671.94
2022-11-10T15:54:59.916Z,99672.47
2022-11-10T15:56:21.479Z,99677.53
2022-11-10T15:57:41.834Z,99681.53
2022-11-10T15:59:02.794Z,99676.81
2022-11-10T16:00:25.280Z,99676.81
2022-11-10T16:01:45.368Z,99691.69
2022-11-10T16:03:05.264Z,99685.63
2022-11-10T16:04:25.567Z,99686.19
2022-11-10T16:05:45.240Z,99691.50
2022-11-10T16:07:05.314Z,99696.56
2022-11-10T16:08:26.467Z,99687.03
2022-11-10T16:09:46.828Z,99691.31
2022-11-10T16:11:12.310Z,99686.56
2022-11-10T16:12:32.423Z,99692.66